createdAt,value
2017-09-27T00:00:29.685Z,96.80
2017-09-27T00:02:58.945Z,96.80
2017-09-27T00:05:28.999Z,96.80
2017-09-27T00:07:59.019Z,96.90
2017-09-27T00:10:28.311Z,96.90
2017-09-27T00:12:57.566Z,96.90
2017-09-27T00:15:26.858Z,96.90
2017-09-27T00:17:56.126Z,96.90
2017-09-27T00:20:25.421Z,96.90
2017-09-27T00:22:54.679Z,97.00
2017-09-27T00:25:23.964Z,97.10
2017-09-27T00:27:53.247Z,97.20
2017-09-27T00:30:22.731Z,97.30
2017-09-27T00:32:52.016Z,97.30
2017-09-27T00:35:22.079Z,97.40
2017-09-27T00:37:52.202Z,97.40
2017-09-27T00:40:21.560Z,97.50
2017-09-27T00:42:51.708Z,97.50
2017-09-27T00:45:22.526Z,97.60
2017-09-27T00:47:51.809Z,97.60
2017-09-27T00:50:21.297Z,97.60
2017-09-27T00:52:50.581Z,97.80
2017-09-27T00:55:19.873Z,97.80
2017-09-27T00:57:49.155Z,97.90
2017-09-27T01:00:18.402Z,97.80
2017-09-27T01:02:47.714Z,97.90
2017-09-27T01:05:17.743Z,97.90
2017-09-27T01:07:47.034Z,97.90
2017-09-27T01:10:16.298Z,98.10
2017-09-27T01:12:45.556Z,98.10
2017-09-27T01:15:14.838Z,98.10
2017-09-27T01:17:44.871Z,98.20
2017-09-27T01:20:14.170Z,98.20
2017-09-27T01:22:43.425Z,98.20
2017-09-27T01:25:12.762Z,98.20
2017-09-27T01:27:42.042Z,98.00
2017-09-27T01:30:11.375Z,98.00
2017-09-27T01:32:40.650Z,98.00
2017-09-27T01:35:09.913Z,98.20
2017-09-27T01:37:39.182Z,98.20
2017-09-27T01:40:08.441Z,98.20
2017-09-27T01:42:37.720Z,98.10
2017-09-27T01:45:07.150Z,98.10
2017-09-27T01:47:36.463Z,98.10
2017-09-27T01:50:05.713Z,98.00
2017-09-27T01:52:35.154Z,98.10
2017-09-27T01:55:04.430Z,97.90
2017-09-27T01:57:33.701Z,97.80
2017-09-27T02:00:03.826Z,97.90
2017-09-27T02:02:33.226Z,97.80
2017-09-27T02:05:03.234Z,97.90
2017-09-27T02:07:32.498Z,97.70
2017-09-27T02:10:01.776Z,97.70
2017-09-27T02:12:31.074Z,97.80
2017-09-27T02:15:00.326Z,97.60
2017-09-27T02:17:30.342Z,97.50
2017-09-27T02:20:00.392Z,97.50
2017-09-27T02:22:30.415Z,97.40
2017-09-27T02:24:59.802Z,97.30
2017-09-27T02:27:29.823Z,97.30
2017-09-27T02:29:59.106Z,97.30
2017-09-27T02:32:28.399Z,97.20
2017-09-27T02:34:57.711Z,97.20
2017-09-27T02:37:26.988Z,97.20
2017-09-27T02:39:56.242Z,97.00
2017-09-27T02:42:25.504Z,97.00
2017-09-27T02:44:55.530Z,97.10
2017-09-27T02:47:25.682Z,97.10
2017-09-27T02:49:54.943Z,97.20
2017-09-27T02:52:25.169Z,97.30
2017-09-27T02:54:55.214Z,97.30
2017-09-27T02:57:24.468Z,97.30
2017-09-27T02:59:53.760Z,97.40
2017-09-27T03:02:23.014Z,97.20
2017-09-27T03:04:52.278Z,97.30
2017-09-27T03:07:21.573Z,97.60
2017-09-27T03:09:50.830Z,97.50
2017-09-27T03:12:20.200Z,97.50
2017-09-27T03:14:50.248Z,97.70
2017-09-27T03:17:19.517Z,97.70
2017-09-27T03:19:48.778Z,97.80
2017-09-27T03:22:18.239Z,97.90
2017-09-27T03:24:47.526Z,98.00
2017-09-27T03:27:17.550Z,98.00
2017-09-27T03:29:46.846Z,98.00
2017-09-27T03:32:16.099Z,97.90
2017-09-27T03:34:45.365Z,98.10
2017-09-27T03:37:14.753Z,98.20
2017-09-27T03:39:44.006Z,98.10
2017-09-27T03:42:13.308Z,98.20
2017-09-27T03:44:42.551Z,98.20
2017-09-27T03:47:12.591Z,98.20
2017-09-27T03:49:41.953Z,98.20
2017-09-27T03:52:11.243Z,98.40
2017-09-27T03:54:40.486Z,98.40
2017-09-27T03:57:09.733Z,98.30
2017-09-27T03:59:39.018Z,98.30
2017-09-27T04:02:08.302Z,98.20
2017-09-27T04:04:37.582Z,98.00
2017-09-27T04:07:07.641Z,97.80
2017-09-27T04:09:36.926Z,97.80
2017-09-27T04:12:06.197Z,97.60
2017-09-27T04:14:35.629Z,97.50
2017-09-27T04:17:04.906Z,97.50
2017-09-27T04:19:34.926Z,98.00
2017-09-27T04:22:04.338Z,97.90
2017-09-27T04:24:34.452Z,98.10
2017-09-27T04:27:03.702Z,98.10
2017-09-27T04:29:33.032Z,98.10
2017-09-27T04:32:02.362Z,98.10
2017-09-27T04:34:32.391Z,98.00
2017-09-27T04:37:01.674Z,98.00
2017-09-27T04:39:30.943Z,97.90
2017-09-27T04:42:00.375Z,97.90
2017-09-27T04:44:30.389Z,97.90
2017-09-27T04:46:59.809Z,97.90
2017-09-27T04:49:29.113Z,98.00
2017-09-27T04:51:58.387Z,98.00
2017-09-27T04:54:27.668Z,98.00
2017-09-27T04:56:56.945Z,97.90
2017-09-27T04:59:26.202Z,97.90
2017-09-27T05:01:55.481Z,98.00
2017-09-27T05:04:24.928Z,97.90
2017-09-27T05:06:54.170Z,98.00
2017-09-27T05:09:23.432Z,98.10
2017-09-27T05:11:52.714Z,98.00
2017-09-27T05:14:22.026Z,98.10
2017-09-27T05:16:51.295Z,98.10
2017-09-27T05:19:22.072Z,98.20
2017-09-27T05:21:51.353Z,98.20
2017-09-27T05:24:20.607Z,98.20
2017-09-27T05:26:49.892Z,98.20
2017-09-27T05:29:19.157Z,98.40
2017-09-27T05:31:49.281Z,98.60
2017-09-27T05:34:19.330Z,98.50
2017-09-27T05:36:48.650Z,98.50
2017-09-27T05:39:17.926Z,98.60
2017-09-27T05:41:47.969Z,98.60
2017-09-27T05:44:17.239Z,98.60
2017-09-27T05:46:46.535Z,98.60
2017-09-27T05:49:16.536Z,98.40
2017-09-27T05:51:45.941Z,98.40
2017-09-27T05:54:15.993Z,98.30
2017-09-27T05:56:45.257Z,98.20
2017-09-27T05:59:14.516Z,98.10
2017-09-27T06:01:43.834Z,97.90
2017-09-27T06:04:13.087Z,97.90
2017-09-27T06:06:42.364Z,97.50
2017-09-27T06:09:12.384Z,96.50
2017-09-27T06:11:41.778Z,96.50
2017-09-27T06:14:11.806Z,95.90
2017-09-27T06:16:41.087Z,95.90
2017-09-27T06:19:10.378Z,95.70
2017-09-27T06:21:39.654Z,95.40
2017-09-27T06:24:09.101Z,95.00
2017-09-27T06:26:39.150Z,94.40
2017-09-27T06:29:08.437Z,94.30
2017-09-27T06:31:37.709Z,93.90
2017-09-27T06:34:08.562Z,92.90
2017-09-27T06:36:38.599Z,92.90
2017-09-27T06:39:08.070Z,93.20
2017-09-27T06:41:37.325Z,92.70
2017-09-27T06:44:06.797Z,92.10
2017-09-27T06:46:36.990Z,91.40
2017-09-27T06:49:06.321Z,91.40
2017-09-27T06:51:35.622Z,90.40
2017-09-27T06:54:04.961Z,87.90
2017-09-27T06:56:34.494Z,84.50
2017-09-27T06:59:03.802Z,81.50
2017-09-27T07:01:33.163Z,78.60
2017-09-27T07:04:02.471Z,74.50
2017-09-27T07:06:31.775Z,70.40
2017-09-27T07:09:01.203Z,65.00
2017-09-27T07:11:30.747Z,60.60
2017-09-27T07:14:00.066Z,56.70
2017-09-27T07:16:30.122Z,48.90
2017-09-27T07:18:59.455Z,48.90
2017-09-27T07:21:28.751Z,48.50
2017-09-27T07:23:58.039Z,47.20
2017-09-27T07:26:27.391Z,44.40
2017-09-27T07:28:57.468Z,43.10
2017-09-27T07:31:26.828Z,43.00
2017-09-27T07:33:56.891Z,39.80
2017-09-27T07:36:26.209Z,39.80
2017-09-27T07:38:55.585Z,39.80
2017-09-27T07:41:24.874Z,39.20
2017-09-27T07:43:54.394Z,37.40
2017-09-27T07:46:23.687Z,37.20
2017-09-27T07:48:53.025Z,37.90
2017-09-27T07:51:22.328Z,38.40
2017-09-27T07:53:51.626Z,39.10
2017-09-27T07:56:20.955Z,39.60
2017-09-27T07:58:51.014Z,39.60
2017-09-27T08:01:20.341Z,39.60
2017-09-27T08:03:49.657Z,41.10
2017-09-27T08:06:19.742Z,39.40
2017-09-27T08:08:49.083Z,39.30
2017-09-27T08:11:19.879Z,37.70
2017-09-27T08:13:49.197Z,37.70
2017-09-27T08:16:18.531Z,36.50
2017-09-27T08:18:48.051Z,35.60
2017-09-27T08:21:18.145Z,33.70
2017-09-27T08:23:47.638Z,33.70
2017-09-27T08:26:17.727Z,36.20
2017-09-27T08:28:47.139Z,36.30
2017-09-27T08:31:16.491Z,32.40
2017-09-27T08:33:45.832Z,30.90
2017-09-27T08:36:15.132Z,33.30
2017-09-27T08:38:44.474Z,32.50
2017-09-27T08:41:14.452Z,33.50
2017-09-27T08:43:43.872Z,30.90
2017-09-27T08:46:13.214Z,32.20
2017-09-27T08:48:42.528Z,30.80
2017-09-27T08:51:12.631Z,31.50
2017-09-27T08:53:42.040Z,31.40
2017-09-27T08:56:11.398Z,32.40
2017-09-27T08:58:40.847Z,33.40
2017-09-27T09:01:10.137Z,37.00
2017-09-27T09:03:39.506Z,33.90
2017-09-27T09:06:08.845Z,35.40
2017-09-27T09:08:38.423Z,33.30
2017-09-27T09:11:07.730Z,32.80
2017-09-27T09:13:37.061Z,32.60
2017-09-27T09:16:06.402Z,33.40
2017-09-27T09:18:36.595Z,30.40
2017-09-27T09:21:05.901Z,30.30
2017-09-27T09:23:35.245Z,30.50
2017-09-27T09:26:04.694Z,30.00
2017-09-27T09:28:34.034Z,31.20
2017-09-27T09:31:03.334Z,30.80
2017-09-27T09:33:32.683Z,30.40
2017-09-27T09:36:02.018Z,30.80
2017-09-27T09:38:31.344Z,29.90
2017-09-27T09:41:00.679Z,32.70
2017-09-27T09:43:30.017Z,30.80
2017-09-27T09:45:59.353Z,30.90
2017-09-27T09:48:28.685Z,31.60
2017-09-27T09:50:57.979Z,31.70
2017-09-27T09:53:27.298Z,31.10
2017-09-27T09:55:56.878Z,31.10
2017-09-27T09:58:26.200Z,30.50
2017-09-27T10:00:55.522Z,30.60
2017-09-27T10:03:24.840Z,33.10
2017-09-27T10:05:54.758Z,32.90
2017-09-27T10:08:24.283Z,30.50
2017-09-27T10:10:53.623Z,29.80
2017-09-27T10:13:22.946Z,29.40
2017-09-27T10:15:52.322Z,30.20
2017-09-27T10:18:21.677Z,31.30
2017-09-27T10:20:50.971Z,31.70
2017-09-27T10:23:21.043Z,30.00
2017-09-27T10:25:50.529Z,29.90
2017-09-27T10:28:20.001Z,30.70
2017-09-27T10:30:50.063Z,30.60
2017-09-27T10:33:19.324Z,30.60
2017-09-27T10:35:48.582Z,30.60
2017-09-27T10:38:17.874Z,30.80
2017-09-27T10:40:47.154Z,31.60
2017-09-27T10:43:16.440Z,32.10
2017-09-27T10:45:45.723Z,32.60
2017-09-27T10:48:14.973Z,31.50
2017-09-27T10:50:44.255Z,31.20
2017-09-27T10:53:13.529Z,35.10
2017-09-27T10:55:43.586Z,33.30
2017-09-27T10:58:12.978Z,33.30
2017-09-27T11:00:42.265Z,32.70
2017-09-27T11:03:12.297Z,35.50
2017-09-27T11:05:41.577Z,35.50
2017-09-27T11:08:10.898Z,34.10
2017-09-27T11:10:40.216Z,34.40
2017-09-27T11:13:09.590Z,34.00
2017-09-27T11:15:39.619Z,34.70
2017-09-27T11:18:08.902Z,34.70
2017-09-27T11:20:38.195Z,34.80
2017-09-27T11:23:07.639Z,34.40
2017-09-27T11:25:36.910Z,34.80
2017-09-27T11:28:06.949Z,36.20
2017-09-27T11:30:36.326Z,36.20
2017-09-27T11:33:05.598Z,36.30
2017-09-27T11:35:35.531Z,36.10
2017-09-27T11:38:04.798Z,36.20
2017-09-27T11:40:34.081Z,37.30
2017-09-27T11:43:03.338Z,35.30
2017-09-27T11:45:32.675Z,37.40
2017-09-27T11:48:02.005Z,35.50
2017-09-27T11:50:31.296Z,36.40
2017-09-27T11:53:00.591Z,36.50
2017-09-27T11:55:29.867Z,40.60
2017-09-27T11:57:59.311Z,37.70
2017-09-27T12:00:28.762Z,39.20
2017-09-27T12:02:58.275Z,42.60
2017-09-27T12:05:28.334Z,45.90
2017-09-27T12:07:57.585Z,45.90
2017-09-27T12:10:26.851Z,47.80
2017-09-27T12:12:56.150Z,51.80
2017-09-27T12:15:25.421Z,52.30
2017-09-27T12:17:54.703Z,50.20
2017-09-27T12:20:24.730Z,52.00
2017-09-27T12:22:54.794Z,53.70
2017-09-27T12:25:24.057Z,53.20
2017-09-27T12:27:54.101Z,52.50
2017-09-27T12:30:23.549Z,52.50
2017-09-27T12:32:52.820Z,53.00
2017-09-27T12:35:22.112Z,52.80
2017-09-27T12:37:51.391Z,52.70
2017-09-27T12:40:20.667Z,53.00
2017-09-27T12:42:50.719Z,52.70
2017-09-27T12:45:20.088Z,52.70
2017-09-27T12:47:50.890Z,51.80
2017-09-27T12:50:20.400Z,51.70
2017-09-27T12:52:49.671Z,52.20
2017-09-27T12:55:19.181Z,52.70
2017-09-27T12:57:48.554Z,54.50
2017-09-27T13:00:17.810Z,54.90
2017-09-27T13:02:47.165Z,54.90
2017-09-27T13:05:16.550Z,52.80
2017-09-27T13:07:46.677Z,52.90
2017-09-27T13:10:16.785Z,52.90
2017-09-27T13:12:46.928Z,53.30
2017-09-27T13:15:16.217Z,53.30
2017-09-27T13:17:45.648Z,53.10
2017-09-27T13:20:14.894Z,54.70
2017-09-27T13:22:44.156Z,54.30
2017-09-27T13:25:13.413Z,52.80
2017-09-27T13:27:43.466Z,53.10
2017-09-27T13:30:12.735Z,53.10
2017-09-27T13:32:42.006Z,53.90
2017-09-27T13:35:11.256Z,54.80
2017-09-27T13:37:40.550Z,53.70
2017-09-27T13:40:10.582Z,54.10
2017-09-27T13:42:39.844Z,54.10
2017-09-27T13:45:09.098Z,54.00
2017-09-27T13:47:38.357Z,54.30
2017-09-27T13:50:08.504Z,54.00
2017-09-27T13:52:38.514Z,53.50
2017-09-27T13:55:08.742Z,55.60
2017-09-27T13:57:37.997Z,55.60
2017-09-27T14:00:08.013Z,55.30
2017-09-27T14:02:37.299Z,55.30
2017-09-27T14:05:06.561Z,55.70
2017-09-27T14:07:35.846Z,58.40
2017-09-27T14:10:05.130Z,56.80
2017-09-27T14:12:34.449Z,57.50
2017-09-27T14:15:04.511Z,54.90
2017-09-27T14:17:33.778Z,54.80
2017-09-27T14:20:03.910Z,54.50
2017-09-27T14:22:33.135Z,54.50
2017-09-27T14:25:02.410Z,58.40
2017-09-27T14:27:31.718Z,57.00
2017-09-27T14:30:01.829Z,55.50
2017-09-27T14:32:31.445Z,56.90
2017-09-27T14:35:02.179Z,55.40
2017-09-27T14:37:31.461Z,55.40
2017-09-27T14:40:00.704Z,59.80
2017-09-27T14:42:29.979Z,55.20
2017-09-27T14:44:59.226Z,58.90
2017-09-27T14:47:28.559Z,61.00
2017-09-27T14:49:57.928Z,60.90
2017-09-27T14:52:27.240Z,60.90
2017-09-27T14:54:56.713Z,60.80
2017-09-27T14:57:25.955Z,57.70
2017-09-27T14:59:55.238Z,56.10
2017-09-27T15:02:24.505Z,57.90
2017-09-27T15:04:53.883Z,58.30
2017-09-27T15:07:23.985Z,56.90
2017-09-27T15:09:54.037Z,58.70
2017-09-27T15:12:23.302Z,58.60
2017-09-27T15:14:52.586Z,60.20
2017-09-27T15:17:22.041Z,61.00
2017-09-27T15:19:51.277Z,64.40
2017-09-27T15:22:20.539Z,65.20
2017-09-27T15:24:49.949Z,66.00
2017-09-27T15:27:19.376Z,67.10
2017-09-27T15:29:48.632Z,69.10
2017-09-27T15:32:17.954Z,70.90
2017-09-27T15:34:47.218Z,71.30
2017-09-27T15:37:16.674Z,71.80
2017-09-27T15:39:45.944Z,73.30
2017-09-27T15:42:16.011Z,74.10
2017-09-27T15:44:45.380Z,74.00
2017-09-27T15:47:14.630Z,75.40
2017-09-27T15:49:43.920Z,77.00
2017-09-27T15:52:13.209Z,77.50
2017-09-27T15:54:42.486Z,79.70
2017-09-27T15:57:11.789Z,81.20
2017-09-27T15:59:41.091Z,82.80
2017-09-27T16:02:10.362Z,83.50
2017-09-27T16:04:39.615Z,84.50
2017-09-27T16:07:08.893Z,86.30
2017-09-27T16:09:38.382Z,87.90
2017-09-27T16:12:08.445Z,89.70
2017-09-27T16:14:37.802Z,89.00
2017-09-27T16:17:07.908Z,90.40
2017-09-27T16:19:37.950Z,90.50
2017-09-27T16:22:07.285Z,90.60
2017-09-27T16:24:36.570Z,90.80
2017-09-27T16:27:05.815Z,91.20
2017-09-27T16:29:36.598Z,91.10
2017-09-27T16:32:06.145Z,91.10
2017-09-27T16:34:35.515Z,90.80
2017-09-27T16:37:04.779Z,91.20
2017-09-27T16:39:34.827Z,91.30
2017-09-27T16:42:04.089Z,91.10
2017-09-27T16:44:34.336Z,91.10
2017-09-27T16:47:04.379Z,91.00
2017-09-27T16:49:33.771Z,91.00
2017-09-27T16:52:03.069Z,91.40
2017-09-27T16:54:32.373Z,91.10
2017-09-27T16:57:01.654Z,91.20
2017-09-27T16:59:31.698Z,92.20
2017-09-27T17:02:00.972Z,91.90
2017-09-27T17:04:30.272Z,92.20
2017-09-27T17:06:59.569Z,92.20
2017-09-27T17:09:29.006Z,92.30
2017-09-27T17:11:58.290Z,92.80
2017-09-27T17:14:28.423Z,92.90
2017-09-27T17:16:57.708Z,92.90
2017-09-27T17:19:27.737Z,93.80
2017-09-27T17:21:57.011Z,93.80
2017-09-27T17:24:26.308Z,93.90
2017-09-27T17:26:55.561Z,94.10
2017-09-27T17:29:24.829Z,94.10
2017-09-27T17:31:54.874Z,94.40
2017-09-27T17:34:24.125Z,94.40
2017-09-27T17:36:53.470Z,94.50
2017-09-27T17:39:22.721Z,94.30
2017-09-27T17:41:52.062Z,94.90
2017-09-27T17:44:21.471Z,94.70
2017-09-27T17:46:51.494Z,94.70
2017-09-27T17:49:20.870Z,94.70
2017-09-27T17:51:50.898Z,94.80
2017-09-27T17:54:20.162Z,94.70
2017-09-27T17:56:50.326Z,95.20
2017-09-27T17:59:19.593Z,95.10
2017-09-27T18:01:48.870Z,94.80
2017-09-27T18:04:23.625Z,94.80
2017-09-27T18:06:58.485Z,95.10
2017-09-27T18:09:33.968Z,95.00
2017-09-27T18:12:22.097Z,94.90
2017-09-27T18:17:55.378Z,95.40
2017-09-27T18:20:24.630Z,95.30
2017-09-27T18:22:53.915Z,95.20
2017-09-27T18:25:23.260Z,95.40
2017-09-27T18:27:52.538Z,95.60
2017-09-27T18:30:21.970Z,95.70
2017-09-27T18:32:51.259Z,95.70
2017-09-27T18:35:20.526Z,95.80
2017-09-27T18:37:49.793Z,95.80
2017-09-27T18:40:19.261Z,95.80
2017-09-27T18:42:48.528Z,96.00
2017-09-27T18:45:17.812Z,96.00
2017-09-27T18:47:47.844Z,96.10
2017-09-27T18:50:17.129Z,96.10
2017-09-27T18:52:46.402Z,96.20
2017-09-27T18:55:15.702Z,96.40
2017-09-27T18:57:44.987Z,96.40
2017-09-27T19:00:14.302Z,96.20
2017-09-27T19:02:43.565Z,96.40
2017-09-27T19:05:12.857Z,96.70
2017-09-27T19:07:42.175Z,96.70
2017-09-27T19:10:11.646Z,96.80
2017-09-27T19:12:41.683Z,96.80
2017-09-27T19:15:11.012Z,96.80
2017-09-27T19:17:40.292Z,97.00
2017-09-27T19:20:09.581Z,97.00
2017-09-27T19:22:38.967Z,97.10
2017-09-27T19:25:09.036Z,97.10
2017-09-27T19:27:38.351Z,97.00
2017-09-27T19:30:08.503Z,97.10
2017-09-27T19:32:39.486Z,97.10
2017-09-27T19:35:08.764Z,97.10
2017-09-27T19:37:38.808Z,97.20
2017-09-27T19:40:08.073Z,97.20
2017-09-27T19:42:37.347Z,97.30
2017-09-27T19:45:06.822Z,97.20
2017-09-27T19:47:36.173Z,97.30
2017-09-27T19:50:05.451Z,97.30
2017-09-27T19:52:34.718Z,97.30
2017-09-27T19:55:04.018Z,97.30
2017-09-27T19:57:33.308Z,97.50
2017-09-27T20:00:02.620Z,97.40
2017-09-27T20:02:31.893Z,97.20
2017-09-27T20:05:01.936Z,97.50
2017-09-27T20:07:31.208Z,97.50
2017-09-27T20:10:00.510Z,97.60
2017-09-27T20:12:30.430Z,97.60
2017-09-27T20:14:59.720Z,97.70
2017-09-27T20:17:29.013Z,97.70
2017-09-27T20:19:58.287Z,97.80
2017-09-27T20:22:27.578Z,97.80
2017-09-27T20:24:56.863Z,97.80
2017-09-27T20:27:26.129Z,97.80
2017-09-27T20:29:56.258Z,97.70
2017-09-27T20:32:26.377Z,97.90
2017-09-27T20:34:56.410Z,98.00
2017-09-27T20:37:25.698Z,98.00
2017-09-27T20:39:55.103Z,98.00
2017-09-27T20:42:25.129Z,98.10
2017-09-27T20:44:54.438Z,98.10
2017-09-27T20:47:23.699Z,98.00
2017-09-27T20:49:54.486Z,98.10
2017-09-27T20:52:23.762Z,98.10
2017-09-27T20:54:53.084Z,98.10
2017-09-27T20:57:22.349Z,98.30
2017-09-27T20:59:51.646Z,98.20
2017-09-27T21:02:20.935Z,98.20
2017-09-27T21:04:50.271Z,98.30
2017-09-27T21:07:19.607Z,98.20
2017-09-27T21:09:48.870Z,98.10
2017-09-27T21:12:18.609Z,98.10
2017-09-27T21:14:47.845Z,98.10
2017-09-27T21:17:17.112Z,98.10
2017-09-27T21:19:46.391Z,98.10
2017-09-27T21:22:15.730Z,98.10
2017-09-27T21:24:45.510Z,98.20
2017-09-27T21:27:15.457Z,98.20
2017-09-27T21:29:44.938Z,98.20
2017-09-27T21:32:14.196Z,98.20
2017-09-27T21:34:43.520Z,98.30
2017-09-27T21:37:12.898Z,98.30
2017-09-27T21:39:42.174Z,98.20
2017-09-27T21:42:11.451Z,98.30
2017-09-27T21:44:40.749Z,98.30
2017-09-27T21:47:10.019Z,98.50
2017-09-27T21:49:39.310Z,98.50
2017-09-27T21:52:08.604Z,98.50
2017-09-27T21:54:37.904Z,98.50
2017-09-27T21:57:07.235Z,98.60
2017-09-27T21:59:36.729Z,98.50
2017-09-27T22:02:06.773Z,98.50
2017-09-27T22:04:36.056Z,98.50
2017-09-27T22:07:06.111Z,98.50
2017-09-27T22:09:35.556Z,98.40
2017-09-27T22:12:05.575Z,98.50
2017-09-27T22:14:34.863Z,98.50
2017-09-27T22:17:04.352Z,98.50
2017-09-27T22:19:33.589Z,98.60
2017-09-27T22:22:03.649Z,98.50
2017-09-27T22:24:32.946Z,98.50
2017-09-27T22:27:02.228Z,98.40
2017-09-27T22:29:32.330Z,98.60
2017-09-27T22:32:01.612Z,98.60
2017-09-27T22:34:30.924Z,98.50
2017-09-27T22:37:00.300Z,98.50
2017-09-27T22:39:29.603Z,98.60
2017-09-27T22:41:58.882Z,98.50
2017-09-27T22:44:28.206Z,98.60
2017-09-27T22:46:57.461Z,98.40
2017-09-27T22:49:27.517Z,98.50
2017-09-27T22:51:56.800Z,98.50
2017-09-27T22:54:26.089Z,98.50
2017-09-27T22:56:55.345Z,98.60
2017-09-27T22:59:24.641Z,98.80
2017-09-27T23:01:53.903Z,98.70
2017-09-27T23:04:23.157Z,98.80
2017-09-27T23:06:52.577Z,98.90
2017-09-27T23:09:21.988Z,98.90
2017-09-27T23:11:52.108Z,99.10
2017-09-27T23:14:22.135Z,99.00
2017-09-27T23:16:51.424Z,98.90
2017-09-27T23:19:20.728Z,99.10
2017-09-27T23:21:50.001Z,99.00
2017-09-27T23:24:19.283Z,99.00
2017-09-27T23:26:48.559Z,99.00
2017-09-27T23:29:17.863Z,98.80
2017-09-27T23:31:47.137Z,98.70
2017-09-27T23:34:17.227Z,98.90
2017-09-27T23:36:46.509Z,98.90
2017-09-27T23:39:15.773Z,98.80
2017-09-27T23:41:45.052Z,98.90
2017-09-27T23:44:14.333Z,99.00
2017-09-27T23:46:43.611Z,99.00
2017-09-27T23:49:13.083Z,99.00
2017-09-27T23:51:43.110Z,98.80
2017-09-27T23:54:12.742Z,98.70
2017-09-27T23:56:41.997Z,98.80
2017-09-27T23:59:12.054Z,98.90
